createdAt,value
2019-03-24T00:00:37.030Z,95.40
2019-03-24T00:01:41.533Z,95.40
2019-03-24T00:02:36.988Z,95.19
2019-03-24T00:03:37.019Z,95.65
2019-03-24T00:04:36.954Z,95.75
2019-03-24T00:05:36.953Z,95.75
2019-03-24T00:06:36.935Z,96.27
2019-03-24T00:07:36.923Z,96.37
2019-03-24T00:08:36.927Z,97.20
2019-03-24T00:09:36.931Z,96.58
2019-03-24T00:10:36.886Z,97.20
2019-03-24T00:11:36.878Z,97.20
2019-03-24T00:12:36.866Z,97.20
2019-03-24T00:13:36.864Z,97.52
2019-03-24T00:14:36.860Z,97.00
2019-03-24T00:15:36.832Z,96.89
2019-03-24T00:16:36.824Z,96.62
2019-03-24T00:17:36.814Z,97.25
2019-03-24T00:18:36.796Z,97.25
2019-03-24T00:19:36.800Z,97.25
2019-03-24T00:20:36.775Z,97.67
2019-03-24T00:21:36.762Z,97.77
2019-03-24T00:22:36.772Z,97.35
2019-03-24T00:23:36.748Z,97.88
2019-03-24T00:24:36.768Z,97.88
2019-03-24T00:25:36.723Z,97.67
2019-03-24T00:26:36.707Z,97.14
2019-03-24T00:27:36.699Z,97.09
2019-03-24T00:28:36.694Z,97.09
2019-03-24T00:29:36.685Z,97.24
2019-03-24T00:30:36.707Z,97.13
2019-03-24T00:31:36.654Z,97.75
2019-03-24T00:32:36.663Z,97.91
2019-03-24T00:33:36.636Z,98.63
2019-03-24T00:34:36.621Z,98.01
2019-03-24T00:35:36.624Z,98.53
2019-03-24T00:36:36.637Z,98.26
2019-03-24T00:37:36.586Z,98.16
2019-03-24T00:38:36.581Z,98.99
2019-03-24T00:39:36.583Z,98.47
2019-03-24T00:40:36.574Z,98.83
2019-03-24T00:41:36.543Z,98.93
2019-03-24T00:42:36.543Z,99.45
2019-03-24T00:43:36.522Z,99.14
2019-03-24T00:44:36.522Z,99.98
2019-03-24T00:45:37.279Z,99.55
2019-03-24T00:46:36.496Z,99.66
2019-03-24T00:47:36.491Z,99.99
2019-03-24T00:48:36.467Z,99.99
2019-03-24T00:49:36.460Z,99.99
2019-03-24T00:50:36.458Z,99.99
2019-03-24T00:51:36.450Z,99.99
2019-03-24T00:52:36.459Z,99.99
2019-03-24T00:53:36.411Z,99.99
2019-03-24T00:54:36.416Z,99.99
2019-03-24T00:55:36.396Z,99.99
2019-03-24T00:56:36.391Z,99.99
2019-03-24T00:57:37.595Z,99.99
2019-03-24T00:58:36.367Z,99.99
2019-03-24T00:59:36.393Z,99.99
2019-03-24T01:00:36.371Z,99.99
2019-03-24T01:01:36.320Z,99.99
2019-03-24T01:02:36.310Z,99.99
2019-03-24T01:03:36.301Z,99.99
2019-03-24T01:04:36.299Z,99.99
2019-03-24T01:05:36.295Z,99.99
2019-03-24T01:06:36.271Z,99.99
2019-03-24T01:07:36.258Z,99.99
2019-03-24T01:08:36.254Z,99.99
2019-03-24T01:09:36.237Z,99.99
2019-03-24T01:10:36.241Z,99.99
2019-03-24T01:11:36.218Z,99.99
2019-03-24T01:12:36.200Z,99.99
2019-03-24T01:13:36.189Z,99.99
2019-03-24T01:14:36.181Z,99.99
2019-03-24T01:15:47.159Z,99.99
2019-03-24T01:16:37.185Z,99.99
2019-03-24T01:17:36.155Z,99.99
2019-03-24T01:18:36.135Z,99.99
2019-03-24T01:19:36.127Z,99.99
2019-03-24T01:20:36.144Z,99.99
2019-03-24T01:21:36.106Z,99.99
2019-03-24T01:22:36.088Z,99.99
2019-03-24T01:23:36.082Z,99.99
2019-03-24T01:24:36.066Z,99.99
2019-03-24T01:25:36.056Z,99.99
2019-03-24T01:26:36.066Z,99.99
2019-03-24T01:27:36.050Z,99.99
2019-03-24T01:28:36.037Z,99.99
2019-03-24T01:29:36.022Z,99.99
2019-03-24T01:30:35.998Z,99.99
2019-03-24T01:31:36.008Z,99.99
2019-03-24T01:32:35.983Z,99.99
2019-03-24T01:33:35.968Z,99.99
2019-03-24T01:34:35.958Z,99.99
2019-03-24T01:35:35.957Z,99.99
2019-03-24T01:36:35.933Z,99.99
2019-03-24T01:37:35.939Z,99.99
2019-03-24T01:38:35.917Z,99.99
2019-03-24T01:39:35.899Z,99.99
2019-03-24T01:40:35.890Z,99.99
2019-03-24T01:41:35.880Z,99.99
2019-03-24T01:42:35.883Z,99.99
2019-03-24T01:43:35.858Z,99.99
2019-03-24T01:44:35.850Z,99.99
2019-03-24T01:45:35.843Z,99.99
2019-03-24T01:46:35.822Z,99.99
2019-03-24T01:47:35.837Z,99.99
2019-03-24T01:48:35.800Z,99.99
2019-03-24T01:49:35.792Z,99.99
2019-03-24T01:50:35.778Z,99.99
2019-03-24T01:51:35.768Z,99.99
2019-03-24T01:52:35.774Z,99.99
2019-03-24T01:53:35.769Z,99.99
2019-03-24T01:54:35.740Z,99.99
2019-03-24T01:55:35.723Z,99.99
2019-03-24T01:56:35.716Z,99.99
2019-03-24T01:57:35.728Z,99.99
2019-03-24T01:58:35.716Z,99.99
2019-03-24T01:59:35.683Z,99.99
2019-03-24T02:00:35.672Z,99.99
2019-03-24T02:01:35.658Z,99.99
2019-03-24T02:02:35.646Z,99.99
2019-03-24T02:03:35.653Z,99.99
2019-03-24T02:04:35.656Z,99.99
2019-03-24T02:05:35.615Z,99.99
2019-03-24T02:06:35.603Z,99.99
2019-03-24T02:07:35.594Z,99.99
2019-03-24T02:08:35.579Z,99.99
2019-03-24T02:09:35.568Z,99.99
2019-03-24T02:10:35.587Z,99.99
2019-03-24T02:11:35.559Z,99.99
2019-03-24T02:12:35.535Z,99.99
2019-03-24T02:13:35.531Z,99.99
2019-03-24T02:14:35.515Z,99.99
2019-03-24T02:15:35.523Z,99.99
2019-03-24T02:16:35.518Z,99.99
2019-03-24T02:17:35.482Z,99.99
2019-03-24T02:18:35.471Z,99.99
2019-03-24T02:19:35.479Z,99.99
2019-03-24T02:20:35.472Z,99.99
2019-03-24T02:21:35.440Z,99.99
2019-03-24T02:22:35.440Z,99.99
2019-03-24T02:23:35.429Z,99.99
2019-03-24T02:24:35.410Z,99.99
2019-03-24T02:25:35.397Z,99.99
2019-03-24T02:26:35.384Z,99.99
2019-03-24T02:27:35.400Z,99.99
2019-03-24T02:28:35.360Z,99.99
2019-03-24T02:29:35.360Z,99.99
2019-03-24T02:30:35.351Z,99.99
2019-03-24T02:31:35.329Z,99.99
2019-03-24T02:32:35.363Z,99.99
2019-03-24T02:33:35.313Z,99.99
2019-03-24T02:34:35.294Z,99.99
2019-03-24T02:35:35.285Z,99.99
2019-03-24T02:36:35.287Z,99.99
2019-03-24T02:37:35.309Z,99.99
2019-03-24T02:38:35.268Z,99.99
2019-03-24T02:39:35.241Z,99.99
2019-03-24T02:40:35.235Z,99.99
2019-03-24T02:41:35.220Z,99.99
2019-03-24T02:42:35.233Z,99.99
2019-03-24T02:43:35.202Z,99.99
2019-03-24T02:44:35.190Z,99.99
2019-03-24T02:45:35.248Z,99.99
2019-03-24T02:46:35.167Z,99.99
2019-03-24T02:47:35.166Z,99.99
2019-03-24T02:48:35.157Z,99.99
2019-03-24T02:49:35.157Z,99.99
2019-03-24T02:50:35.125Z,99.99
2019-03-24T02:51:35.156Z,99.99
2019-03-24T02:52:35.121Z,99.99
2019-03-24T02:53:35.103Z,99.99
2019-03-24T02:54:35.083Z,99.99
2019-03-24T02:55:35.065Z,99.99
2019-03-24T02:56:35.050Z,99.99
2019-03-24T02:57:35.044Z,99.99
2019-03-24T02:58:35.044Z,99.99
2019-03-24T02:59:35.068Z,99.99
2019-03-24T03:00:35.009Z,99.99
2019-03-24T03:01:34.994Z,99.99
2019-03-24T03:02:34.999Z,99.99
2019-03-24T03:03:34.974Z,99.99
2019-03-24T03:04:34.969Z,99.99
2019-03-24T03:05:34.988Z,99.99
2019-03-24T03:06:34.962Z,99.99
2019-03-24T03:07:34.932Z,99.99
2019-03-24T03:08:34.921Z,99.99
2019-03-24T03:09:34.928Z,99.99
2019-03-24T03:10:34.972Z,99.99
2019-03-24T03:11:34.900Z,99.99
2019-03-24T03:12:34.878Z,99.99
2019-03-24T03:13:34.871Z,99.99
2019-03-24T03:14:34.882Z,99.99
2019-03-24T03:15:34.841Z,99.99
2019-03-24T03:16:38.845Z,99.99
2019-03-24T03:17:34.863Z,99.99
2019-03-24T03:18:34.808Z,99.99
2019-03-24T03:19:34.803Z,99.99
2019-03-24T03:20:34.830Z,99.99
2019-03-24T03:21:34.823Z,99.99
2019-03-24T03:22:34.781Z,99.99
2019-03-24T03:23:34.754Z,99.99
2019-03-24T03:24:34.751Z,99.99
2019-03-24T03:25:34.756Z,99.99
2019-03-24T03:26:34.756Z,99.99
2019-03-24T03:27:34.719Z,99.99
2019-03-24T03:28:34.697Z,99.99
2019-03-24T03:29:34.706Z,99.99
2019-03-24T03:30:34.680Z,99.99
2019-03-24T03:31:34.683Z,99.99
2019-03-24T03:32:34.701Z,99.99
2019-03-24T03:33:34.674Z,99.99
2019-03-24T03:34:34.642Z,99.99
2019-03-24T03:35:34.654Z,99.99
2019-03-24T03:36:34.611Z,99.99
2019-03-24T03:37:34.601Z,99.99
2019-03-24T03:38:34.651Z,99.99
2019-03-24T03:39:34.594Z,99.99
2019-03-24T03:40:34.582Z,99.99
2019-03-24T03:41:34.562Z,99.99
2019-03-24T03:42:34.562Z,99.99
2019-03-24T03:43:34.562Z,99.99
2019-03-24T03:44:34.544Z,99.99
2019-03-24T03:45:34.519Z,99.99
2019-03-24T03:46:34.511Z,99.99
2019-03-24T03:47:34.540Z,99.99
2019-03-24T03:48:34.494Z,99.99
2019-03-24T03:49:34.485Z,99.99
2019-03-24T03:50:34.465Z,99.99
2019-03-24T03:51:34.469Z,99.99
2019-03-24T03:52:34.435Z,99.99
2019-03-24T03:53:34.437Z,99.99
2019-03-24T03:54:34.428Z,99.99
2019-03-24T03:55:34.401Z,99.99
2019-03-24T03:56:34.421Z,99.99
2019-03-24T03:57:34.382Z,99.99
2019-03-24T03:58:34.382Z,99.99
2019-03-24T03:59:34.378Z,99.99
2019-03-24T04:00:34.356Z,99.99
2019-03-24T04:01:34.342Z,99.99
2019-03-24T04:02:34.355Z,99.99
2019-03-24T04:03:34.372Z,99.99
2019-03-24T04:04:34.302Z,99.99
2019-03-24T04:05:34.311Z,99.99
2019-03-24T04:06:34.303Z,99.99
2019-03-24T04:07:34.270Z,99.99
2019-03-24T04:08:34.255Z,99.99
2019-03-24T04:09:34.307Z,99.99
2019-03-24T04:10:34.240Z,99.99
2019-03-24T04:11:34.232Z,99.99
2019-03-24T04:12:34.222Z,99.99
2019-03-24T04:13:34.225Z,99.99
2019-03-24T04:14:34.207Z,99.99
2019-03-24T04:15:34.246Z,99.99
2019-03-24T04:16:34.171Z,99.99
2019-03-24T04:17:34.162Z,99.99
2019-03-24T04:18:34.152Z,99.99
2019-03-24T04:19:34.155Z,99.99
2019-03-24T04:20:34.169Z,99.99
2019-03-24T04:21:34.128Z,99.99
2019-03-24T04:22:34.114Z,99.99
2019-03-24T04:23:34.116Z,99.99
2019-03-24T04:24:34.093Z,99.99
2019-03-24T04:25:34.074Z,99.99
2019-03-24T04:26:34.182Z,99.99
2019-03-24T04:27:34.069Z,99.99
2019-03-24T04:28:34.036Z,99.99
2019-03-24T04:29:34.044Z,99.99
2019-03-24T04:30:34.023Z,99.99
2019-03-24T04:31:34.043Z,99.99
2019-03-24T04:32:34.005Z,99.99
2019-03-24T04:33:33.981Z,99.99
2019-03-24T04:34:33.981Z,99.99
2019-03-24T04:35:33.968Z,99.99
2019-03-24T04:36:33.973Z,99.99
2019-03-24T04:37:33.967Z,99.99
2019-03-24T04:38:33.937Z,99.99
2019-03-24T04:39:33.917Z,99.99
2019-03-24T04:40:33.905Z,99.99
2019-03-24T04:41:34.663Z,99.99
2019-03-24T04:42:33.904Z,99.99
2019-03-24T04:43:33.883Z,99.99
2019-03-24T04:44:33.864Z,99.99
2019-03-24T04:45:33.854Z,99.99
2019-03-24T04:46:33.838Z,99.99
2019-03-24T04:47:33.827Z,99.99
2019-03-24T04:48:33.871Z,99.99
2019-03-24T04:49:33.815Z,99.99
2019-03-24T04:50:33.793Z,99.99
2019-03-24T04:51:33.782Z,99.99
2019-03-24T04:52:33.773Z,99.99
2019-03-24T04:53:33.776Z,99.99
2019-03-24T04:54:33.771Z,99.99
2019-03-24T04:55:33.803Z,99.99
2019-03-24T04:56:33.738Z,99.99
2019-03-24T04:57:33.729Z,99.99
2019-03-24T04:58:33.705Z,99.99
2019-03-24T04:59:33.699Z,99.99
2019-03-24T05:00:33.696Z,99.99
2019-03-24T05:01:33.677Z,99.99
2019-03-24T05:02:33.663Z,99.99
2019-03-24T05:03:33.650Z,99.99
2019-03-24T05:04:33.648Z,99.99
2019-03-24T05:05:33.657Z,99.99
2019-03-24T05:06:33.618Z,99.99
2019-03-24T05:07:33.608Z,99.99
2019-03-24T05:08:33.604Z,99.99
2019-03-24T05:09:33.586Z,99.99
2019-03-24T05:10:33.587Z,99.99
2019-03-24T05:11:33.601Z,99.99
2019-03-24T05:12:33.554Z,99.99
2019-03-24T05:13:33.545Z,99.99
2019-03-24T05:14:33.533Z,99.99
2019-03-24T05:15:33.538Z,99.99
2019-03-24T05:16:33.523Z,99.99
2019-03-24T05:17:33.517Z,99.99
2019-03-24T05:18:33.494Z,99.99
2019-03-24T05:19:33.489Z,99.99
2019-03-24T05:20:33.469Z,99.99
2019-03-24T05:21:33.458Z,99.99
2019-03-24T05:22:33.452Z,99.99
2019-03-24T05:23:33.445Z,99.99
2019-03-24T05:24:33.421Z,99.99
2019-03-24T05:25:33.407Z,99.99
2019-03-24T05:26:33.401Z,99.99
2019-03-24T05:27:33.400Z,99.99
2019-03-24T05:28:33.390Z,99.99
2019-03-24T05:29:33.367Z,99.99
2019-03-24T05:30:33.368Z,99.99
2019-03-24T05:31:33.346Z,99.99
2019-03-24T05:32:33.335Z,99.99
2019-03-24T05:33:33.383Z,99.99
2019-03-24T05:34:33.319Z,99.99
2019-03-24T05:35:33.299Z,99.99
2019-03-24T05:36:33.294Z,99.99
2019-03-24T05:37:33.281Z,99.99
2019-03-24T05:38:33.269Z,99.99
2019-03-24T05:39:33.282Z,99.99
2019-03-24T05:40:33.272Z,99.99
2019-03-24T05:41:33.243Z,99.99
2019-03-24T05:42:33.234Z,99.99
2019-03-24T05:43:33.211Z,99.99
2019-03-24T05:44:33.210Z,99.99
2019-03-24T05:45:33.207Z,99.99
2019-03-24T05:46:33.177Z,99.99
2019-03-24T05:47:37.155Z,99.99
2019-03-24T05:48:33.162Z,99.99
2019-03-24T05:49:33.190Z,99.99
2019-03-24T05:50:33.151Z,99.99
2019-03-24T05:51:33.121Z,99.99
2019-03-24T05:52:33.115Z,99.99
2019-03-24T05:53:33.096Z,99.99
2019-03-24T05:54:33.116Z,99.99
2019-03-24T05:55:33.117Z,99.99
2019-03-24T05:56:33.082Z,99.99
2019-03-24T05:57:33.081Z,99.99
2019-03-24T05:58:33.043Z,99.99
2019-03-24T05:59:33.040Z,99.99
2019-03-24T06:00:33.040Z,99.99
2019-03-24T06:01:33.032Z,99.99
2019-03-24T06:02:33.007Z,99.99
2019-03-24T06:03:32.994Z,99.99
2019-03-24T06:04:32.997Z,99.99
2019-03-24T06:05:32.967Z,99.99
2019-03-24T06:06:32.969Z,99.99
2019-03-24T06:07:32.961Z,99.99
2019-03-24T06:08:32.938Z,99.99
2019-03-24T06:09:32.919Z,99.99
2019-03-24T06:10:32.920Z,99.99
2019-03-24T06:11:32.917Z,99.99
2019-03-24T06:12:32.909Z,99.99
2019-03-24T06:13:32.886Z,99.99
2019-03-24T06:14:32.876Z,99.99
2019-03-24T06:15:32.867Z,99.99
2019-03-24T06:16:32.846Z,99.99
2019-03-24T06:17:32.846Z,99.99
2019-03-24T06:18:32.838Z,99.99
2019-03-24T06:19:32.828Z,99.99
2019-03-24T06:20:32.805Z,99.99
2019-03-24T06:21:32.803Z,99.99
2019-03-24T06:22:32.797Z,99.99
2019-03-24T06:23:32.768Z,99.99
2019-03-24T06:24:32.758Z,99.99
2019-03-24T06:25:34.903Z,99.99
2019-03-24T06:26:32.749Z,99.99
2019-03-24T06:27:32.739Z,99.99
2019-03-24T06:28:32.723Z,99.99
2019-03-24T06:29:32.714Z,99.99
2019-03-24T06:30:32.700Z,99.99
2019-03-24T06:31:32.683Z,99.99
2019-03-24T06:32:32.712Z,99.99
2019-03-24T06:33:32.672Z,99.99
2019-03-24T06:34:32.649Z,99.99
2019-03-24T06:35:32.637Z,99.99
2019-03-24T06:36:32.636Z,99.99
2019-03-24T06:37:32.616Z,99.99
2019-03-24T06:38:32.619Z,99.99
2019-03-24T06:39:32.591Z,99.99
2019-03-24T06:40:32.584Z,99.99
2019-03-24T06:41:32.625Z,99.99
2019-03-24T06:42:32.554Z,99.99
2019-03-24T06:43:32.557Z,99.99
2019-03-24T06:44:32.556Z,99.99
2019-03-24T06:45:32.557Z,99.99
2019-03-24T06:46:32.520Z,99.99
2019-03-24T06:47:32.505Z,99.99
2019-03-24T06:48:32.492Z,99.99
2019-03-24T06:49:32.473Z,99.99
2019-03-24T06:50:32.470Z,99.99
2019-03-24T06:51:32.483Z,99.99
2019-03-24T06:52:32.441Z,99.99
2019-03-24T06:53:32.434Z,99.99
2019-03-24T06:54:32.464Z,99.99
2019-03-24T06:55:32.419Z,99.99
2019-03-24T06:56:32.400Z,99.99
2019-03-24T06:57:32.427Z,99.77
2019-03-24T06:58:32.390Z,99.67
2019-03-24T06:59:32.384Z,98.84
2019-03-24T07:00:32.354Z,98.90
2019-03-24T07:01:32.343Z,99.22
2019-03-24T07:02:32.370Z,99.02
2019-03-24T07:03:32.820Z,98.66
2019-03-24T07:04:32.314Z,98.55
2019-03-24T07:05:32.318Z,98.51
2019-03-24T07:06:34.649Z,98.72
2019-03-24T07:07:32.277Z,98.61
2019-03-24T07:08:32.270Z,98.51
2019-03-24T07:09:32.265Z,97.85
2019-03-24T07:10:32.269Z,97.16
2019-03-24T07:11:32.230Z,97.53
2019-03-24T07:12:32.223Z,97.07
2019-03-24T07:13:32.207Z,96.34
2019-03-24T07:14:32.227Z,95.26
2019-03-24T07:15:32.227Z,93.75
2019-03-24T07:16:32.185Z,94.58
2019-03-24T07:17:32.162Z,92.55
2019-03-24T07:18:32.153Z,93.05
2019-03-24T07:19:32.140Z,94.05
2019-03-24T07:20:32.128Z,94.98
2019-03-24T07:21:32.178Z,93.63
2019-03-24T07:22:32.116Z,95.15
2019-03-24T07:23:32.097Z,95.25
2019-03-24T07:24:32.095Z,94.73
2019-03-24T07:25:32.101Z,95.46
2019-03-24T07:26:32.074Z,95.72
2019-03-24T07:27:32.049Z,95.89
2019-03-24T07:28:32.048Z,95.16
2019-03-24T07:29:32.039Z,95.22
2019-03-24T07:30:32.029Z,94.87
2019-03-24T07:31:32.028Z,94.56
2019-03-24T07:32:31.993Z,94.31
2019-03-24T07:33:31.995Z,93.48
2019-03-24T07:34:31.988Z,92.76
2019-03-24T07:35:31.996Z,92.13
2019-03-24T07:36:31.951Z,91.14
2019-03-24T07:37:31.957Z,92.01
2019-03-24T07:38:31.948Z,91.89
2019-03-24T07:39:31.915Z,94.02
2019-03-24T07:40:31.904Z,94.33
2019-03-24T07:41:31.913Z,94.85
2019-03-24T07:42:31.915Z,94.08
2019-03-24T07:43:31.871Z,93.46
2019-03-24T07:44:31.897Z,92.43
2019-03-24T07:45:31.874Z,92.26
2019-03-24T07:46:31.841Z,92.35
2019-03-24T07:47:31.849Z,93.37
2019-03-24T07:48:31.828Z,95.11
2019-03-24T07:49:31.810Z,95.53
2019-03-24T07:50:31.792Z,97.34
2019-03-24T07:51:31.792Z,97.44
2019-03-24T07:52:31.770Z,98.07
2019-03-24T07:53:31.811Z,98.85
2019-03-24T07:57:09.708Z,98.54
2019-03-24T07:58:08.430Z,97.98
2019-03-24T07:59:08.415Z,97.62
2019-03-24T08:00:08.403Z,97.83
2019-03-24T08:01:08.384Z,97.85
2019-03-24T08:02:08.388Z,96.24
2019-03-24T08:03:08.399Z,94.70
2019-03-24T08:04:08.367Z,94.10
2019-03-24T08:05:08.339Z,94.48
2019-03-24T08:06:08.367Z,91.03
2019-03-24T08:07:08.318Z,88.86
2019-03-24T08:08:08.305Z,88.45
2019-03-24T08:09:08.329Z,87.70
2019-03-24T08:10:08.286Z,89.67
2019-03-24T08:11:08.292Z,89.15
2019-03-24T08:12:08.285Z,90.60
2019-03-24T08:13:08.248Z,92.21
2019-03-24T08:14:08.247Z,90.26
2019-03-24T08:15:08.239Z,90.06
2019-03-24T08:16:08.230Z,84.52
2019-03-24T08:17:08.204Z,80.91
2019-03-24T08:18:08.202Z,82.29
2019-03-24T08:19:08.189Z,83.53
2019-03-24T08:20:08.204Z,82.25
2019-03-24T08:21:08.167Z,80.98
2019-03-24T08:22:08.149Z,80.05
2019-03-24T08:23:08.140Z,80.61
2019-03-24T08:24:08.131Z,81.30
2019-03-24T08:25:08.117Z,82.68
2019-03-24T08:26:08.118Z,82.16
2019-03-24T08:27:08.103Z,82.92
2019-03-24T08:28:08.080Z,83.54
2019-03-24T08:29:08.098Z,82.98
2019-03-24T08:30:08.062Z,83.63
2019-03-24T08:31:08.067Z,83.44
2019-03-24T08:32:08.041Z,85.02
2019-03-24T08:33:08.051Z,84.57
2019-03-24T08:34:08.015Z,83.80
2019-03-24T08:35:08.003Z,82.45
2019-03-24T08:36:08.008Z,80.02
2019-03-24T08:37:07.989Z,83.78
2019-03-24T08:38:07.974Z,86.42
2019-03-24T08:39:08.737Z,88.22
2019-03-24T08:40:07.955Z,89.44
2019-03-24T08:41:07.938Z,91.26
2019-03-24T08:42:07.952Z,89.67
2019-03-24T08:43:07.911Z,88.04
2019-03-24T08:44:07.910Z,87.87
2019-03-24T08:45:07.904Z,88.10
2019-03-24T08:46:07.879Z,87.99
2019-03-24T08:47:07.912Z,87.37
2019-03-24T08:48:07.891Z,86.76
2019-03-24T08:49:07.848Z,85.85
2019-03-24T08:50:07.830Z,85.89
2019-03-24T08:51:07.836Z,85.60
2019-03-24T08:52:07.814Z,83.84
2019-03-24T08:53:07.839Z,81.67
2019-03-24T08:54:07.796Z,82.12
2019-03-24T08:55:07.780Z,82.26
2019-03-24T08:56:07.762Z,83.81
2019-03-24T08:57:07.757Z,83.27
2019-03-24T08:58:07.740Z,84.55
2019-03-24T08:59:07.751Z,84.61
2019-03-24T09:00:07.721Z,84.89
2019-03-24T09:01:07.719Z,86.38
2019-03-24T09:02:07.710Z,88.49
2019-03-24T09:03:07.684Z,88.70
2019-03-24T09:04:07.693Z,89.22
2019-03-24T09:05:07.676Z,89.42
2019-03-24T09:06:07.649Z,90.50
2019-03-24T09:07:07.638Z,88.45
2019-03-24T09:08:07.639Z,87.34
2019-03-24T09:09:07.618Z,85.60
2019-03-24T09:10:07.646Z,83.26
2019-03-24T09:11:07.593Z,80.36
2019-03-24T09:12:07.597Z,78.85
2019-03-24T09:13:07.574Z,77.85
2019-03-24T09:14:07.562Z,76.28
2019-03-24T09:15:07.578Z,74.74
2019-03-24T09:16:07.568Z,74.08
2019-03-24T09:17:07.525Z,74.84
2019-03-24T09:18:07.514Z,74.60
2019-03-24T09:19:07.559Z,72.78
2019-03-24T09:20:07.493Z,72.86
2019-03-24T09:21:07.504Z,71.83
2019-03-24T09:22:07.487Z,73.85
2019-03-24T09:23:07.474Z,77.48
2019-03-24T09:24:07.446Z,79.20
2019-03-24T09:25:07.462Z,79.86
2019-03-24T09:26:07.428Z,78.72
2019-03-24T09:27:07.441Z,79.51
2019-03-24T09:28:09.204Z,79.16
2019-03-24T09:29:07.407Z,77.28
2019-03-24T09:30:07.407Z,77.24
2019-03-24T09:31:07.369Z,77.00
2019-03-24T09:32:07.406Z,76.76
2019-03-24T09:33:07.346Z,76.42
2019-03-24T09:34:07.365Z,75.56
2019-03-24T09:35:07.338Z,74.02
2019-03-24T09:36:07.360Z,73.44
2019-03-24T09:37:07.373Z,75.70
2019-03-24T09:38:07.298Z,77.93
2019-03-24T09:39:07.317Z,78.44
2019-03-24T09:40:07.280Z,78.41
2019-03-24T09:41:07.285Z,78.27
2019-03-24T09:42:07.244Z,77.86
2019-03-24T09:43:07.260Z,78.13
2019-03-24T09:44:07.224Z,76.52
2019-03-24T09:45:07.231Z,75.29
2019-03-24T09:46:07.278Z,76.21
2019-03-24T09:47:07.198Z,75.35
2019-03-24T09:48:07.224Z,74.12
2019-03-24T09:49:07.181Z,73.36
2019-03-24T09:50:07.152Z,73.98
2019-03-24T09:51:07.145Z,71.93
2019-03-24T09:52:07.128Z,74.40
2019-03-24T09:53:07.155Z,72.10
2019-03-24T09:54:07.118Z,69.84
2019-03-24T09:55:07.106Z,68.61
2019-03-24T09:56:07.087Z,69.94
2019-03-24T09:57:07.076Z,70.49
2019-03-24T09:58:07.096Z,71.41
2019-03-24T09:59:07.101Z,72.20
2019-03-24T10:00:07.046Z,72.00
2019-03-24T10:01:07.026Z,70.15
2019-03-24T10:02:07.020Z,70.76
2019-03-24T10:03:07.008Z,71.69
2019-03-24T10:04:07.051Z,70.66
2019-03-24T10:05:07.018Z,73.16
2019-03-24T10:06:06.977Z,73.74
2019-03-24T10:07:06.974Z,71.59
2019-03-24T10:08:06.966Z,73.40
2019-03-24T10:09:06.939Z,72.03
2019-03-24T10:10:06.928Z,70.56
2019-03-24T10:11:06.938Z,71.69
2019-03-24T10:12:06.926Z,70.56
2019-03-24T10:13:06.901Z,70.53
2019-03-24T10:14:06.880Z,69.98
2019-03-24T10:15:06.877Z,66.60
2019-03-24T10:16:06.906Z,68.99
2019-03-24T10:17:06.847Z,68.65
2019-03-24T10:18:06.840Z,68.76
2019-03-24T10:19:13.924Z,64.86
2019-03-24T10:20:07.814Z,64.76
2019-03-24T10:21:06.819Z,66.09
2019-03-24T10:22:06.812Z,67.60
2019-03-24T10:23:06.782Z,67.19
2019-03-24T10:24:07.977Z,66.44
2019-03-24T10:25:06.760Z,63.68
2019-03-24T10:26:06.745Z,64.70
2019-03-24T10:27:06.782Z,64.36
2019-03-24T10:28:06.726Z,64.16
2019-03-24T10:29:06.740Z,63.13
2019-03-24T10:30:06.700Z,61.70
2019-03-24T10:31:06.689Z,63.06
2019-03-24T10:32:06.680Z,63.88
2019-03-24T10:33:06.691Z,64.12
2019-03-24T10:34:06.665Z,64.97
2019-03-24T10:35:06.712Z,64.59
2019-03-24T10:36:06.631Z,66.33
2019-03-24T10:37:06.637Z,67.02
2019-03-24T10:38:06.677Z,64.83
2019-03-24T10:39:06.613Z,62.65
2019-03-24T10:40:06.590Z,61.19
2019-03-24T10:41:06.579Z,61.40
2019-03-24T10:42:06.581Z,64.13
2019-03-24T10:43:06.556Z,62.77
2019-03-24T10:44:06.563Z,61.65
2019-03-24T10:45:06.534Z,60.80
2019-03-24T10:46:06.522Z,59.16
2019-03-24T10:47:06.561Z,59.16
2019-03-24T10:48:06.500Z,60.90
2019-03-24T10:49:06.488Z,61.08
2019-03-24T10:50:06.491Z,58.34
2019-03-24T10:51:06.480Z,61.28
2019-03-24T10:52:06.457Z,57.81
2019-03-24T10:53:06.456Z,57.50
2019-03-24T10:54:06.450Z,58.83
2019-03-24T10:55:06.423Z,58.78
2019-03-24T10:56:06.407Z,57.17
2019-03-24T10:57:06.412Z,59.08
2019-03-24T10:58:06.413Z,57.34
2019-03-24T10:59:06.401Z,58.54
2019-03-24T11:00:06.370Z,57.50
2019-03-24T11:01:06.375Z,55.46
2019-03-24T11:02:06.359Z,56.17
2019-03-24T11:03:06.363Z,57.98
2019-03-24T11:04:06.334Z,56.15
2019-03-24T11:05:06.326Z,54.82
2019-03-24T11:06:06.306Z,56.45
2019-03-24T11:07:06.298Z,56.20
2019-03-24T11:08:06.273Z,59.12
2019-03-24T11:09:06.287Z,56.35
2019-03-24T11:10:06.251Z,57.39
2019-03-24T11:11:06.271Z,56.85
2019-03-24T11:12:06.227Z,57.57
2019-03-24T11:13:06.220Z,55.10
2019-03-24T11:14:06.245Z,55.02
2019-03-24T11:15:06.241Z,55.53
2019-03-24T11:16:06.183Z,55.00
2019-03-24T11:17:06.211Z,55.30
2019-03-24T11:18:06.169Z,54.77
2019-03-24T11:19:06.181Z,53.22
2019-03-24T11:20:06.137Z,53.83
2019-03-24T11:21:06.133Z,54.51
2019-03-24T11:22:06.135Z,53.29
2019-03-24T11:23:06.146Z,53.06
2019-03-24T11:24:06.092Z,55.18
2019-03-24T11:25:06.087Z,54.57
2019-03-24T11:26:06.089Z,56.07
2019-03-24T11:27:06.071Z,53.32
2019-03-24T11:28:06.049Z,52.40
2019-03-24T11:29:06.044Z,52.35
2019-03-24T11:30:06.023Z,52.48
2019-03-24T11:31:06.018Z,52.93
2019-03-24T11:32:06.028Z,55.18
2019-03-24T11:33:06.005Z,55.46
2019-03-24T11:34:05.997Z,54.41
2019-03-24T11:35:05.971Z,56.45
2019-03-24T11:36:05.971Z,53.16
2019-03-24T11:37:05.960Z,52.02
2019-03-24T11:38:05.936Z,51.10
2019-03-24T11:39:05.927Z,51.84
2019-03-24T11:40:05.926Z,51.33
2019-03-24T11:41:05.900Z,51.05
2019-03-24T11:42:05.900Z,51.05
2019-03-24T11:43:05.919Z,51.86
2019-03-24T11:44:05.878Z,52.09
2019-03-24T11:45:05.872Z,52.96
2019-03-24T11:46:05.847Z,54.49
2019-03-24T11:47:05.836Z,55.00
2019-03-24T11:48:05.820Z,54.11
2019-03-24T11:49:05.813Z,53.06
2019-03-24T11:50:05.834Z,53.34
2019-03-24T11:51:05.790Z,52.32
2019-03-24T11:52:05.779Z,50.41
2019-03-24T11:53:05.782Z,49.74
2019-03-24T11:54:05.762Z,50.45
2019-03-24T11:55:05.748Z,51.89
2019-03-24T11:56:05.772Z,51.57
2019-03-24T11:57:05.739Z,53.54
2019-03-24T11:58:06.388Z,55.41
2019-03-24T11:59:05.699Z,55.79
2019-03-24T12:00:05.693Z,55.05
2019-03-24T12:01:05.710Z,53.36
2019-03-24T12:02:05.691Z,51.73
2019-03-24T12:03:05.654Z,52.09
2019-03-24T12:04:05.641Z,51.38
2019-03-24T12:05:05.633Z,50.23
2019-03-24T12:06:13.855Z,50.13
2019-03-24T12:07:06.641Z,49.77
2019-03-24T12:08:05.617Z,51.91
2019-03-24T12:09:05.593Z,51.86
2019-03-24T12:10:05.578Z,49.32
2019-03-24T12:11:05.575Z,51.97
2019-03-24T12:12:05.614Z,52.17
2019-03-24T12:13:05.544Z,51.66
2019-03-24T12:14:05.529Z,54.67
2019-03-24T12:15:05.615Z,53.62
2019-03-24T12:16:05.543Z,51.99
2019-03-24T12:17:05.497Z,52.29
2019-03-24T12:18:05.503Z,51.58
2019-03-24T12:19:05.494Z,52.62
2019-03-24T12:20:05.462Z,51.93
2019-03-24T12:21:05.459Z,55.10
2019-03-24T12:22:05.441Z,56.40
2019-03-24T12:23:05.460Z,54.33
2019-03-24T12:24:05.432Z,53.31
2019-03-24T12:25:05.411Z,54.33
2019-03-24T12:26:05.409Z,53.29
2019-03-24T12:27:05.382Z,51.79
2019-03-24T12:28:05.409Z,51.91
2019-03-24T12:29:05.363Z,53.11
2019-03-24T12:30:05.350Z,53.52
2019-03-24T12:31:05.370Z,52.17
2019-03-24T12:32:05.334Z,51.35
2019-03-24T12:33:05.317Z,50.13
2019-03-24T12:34:05.319Z,51.86
2019-03-24T12:35:05.307Z,50.21
2019-03-24T12:36:05.327Z,51.15
2019-03-24T12:37:05.277Z,49.50
2019-03-24T12:38:05.259Z,49.95
2019-03-24T12:39:05.247Z,51.96
2019-03-24T12:40:05.252Z,52.37
2019-03-24T12:41:05.256Z,52.88
2019-03-24T12:42:05.246Z,53.27
2019-03-24T12:43:05.237Z,51.63
2019-03-24T12:44:05.209Z,53.29
2019-03-24T12:45:05.181Z,52.37
2019-03-24T12:46:05.230Z,52.55
2019-03-24T12:47:05.162Z,53.16
2019-03-24T12:48:05.152Z,53.29
2019-03-24T12:49:05.165Z,52.25
2019-03-24T12:50:09.348Z,52.75
2019-03-24T12:51:05.116Z,51.73
2019-03-24T12:52:05.121Z,53.34
2019-03-24T12:53:05.091Z,54.77
2019-03-24T12:54:05.102Z,53.31
2019-03-24T12:55:05.064Z,53.14